Time;durP1;ratioP1;P1;durP2;ratioP2;P2;SDS_P1;SDS_P2;PMS_P1;PMS_P2;Temp;Humidity;BMP_temperature;BMP_pressure;BME280_temperature;BME280_humidity;BME280_pressure;Samples;Min_cycle;Max_cycle;Signal;HPM_P1;HPM_P2
2022/06/23 00:01:59;;;;;;;;;15.25;14.25;;;;;25.41;47.77;100420.28;5111990;27;45544;-67
2022/06/23 00:04:29;;;;;;;;;16.00;14.50;;;;;25.41;48.00;100409.56;5118566;27;45264;-66
2022/06/23 00:06:57;;;;;;;;;12.25;12.25;;;;;25.40;48.15;100408.72;5113723;27;45374;-67
2022/06/23 00:09:51;;;;;;;;;18.25;14.50;;;;;25.39;48.21;100421.28;5115358;27;46421;-67
2022/06/23 00:12:19;;;;;;;;;17.25;13.25;;;;;25.38;48.17;100430.28;5105698;27;45489;-67
2022/06/23 00:14:53;;;;;;;;;18.50;15.75;;;;;25.36;47.85;100410.00;5106340;27;45347;-67
2022/06/23 00:17:36;;;;;;;;;13.25;13.25;;;;;25.37;48.05;100417.91;5106855;27;45421;-67
2022/06/23 00:20:11;;;;;;;;;16.25;14.75;;;;;25.38;48.19;100413.38;5108278;27;46377;-67
2022/06/23 00:22:40;;;;;;;;;15.00;15.00;;;;;25.39;47.96;100405.22;5104013;27;45499;-67
2022/06/23 00:25:07;;;;;;;;;13.25;13.25;;;;;25.43;47.93;100412.94;5108151;27;45370;-67
2022/06/23 00:27:36;;;;;;;;;12.75;11.25;;;;;25.41;48.10;100412.22;5106737;27;45550;-67
2022/06/23 00:30:06;;;;;;;;;13.75;13.00;;;;;25.44;48.08;100410.09;5103509;27;47309;-67
2022/06/23 00:32:31;;;;;;;;;15.50;13.25;;;;;25.46;48.04;100407.28;5106564;27;45509;-67
2022/06/23 00:35:04;;;;;;;;;14.25;13.50;;;;;25.47;48.03;100399.09;5107122;27;64495;-67
2022/06/23 00:37:29;;;;;;;;;14.00;12.50;;;;;25.48;47.95;100391.91;5111454;27;45610;-67
2022/06/23 00:39:59;;;;;;;;;14.50;13.00;;;;;25.49;47.88;100404.31;5105276;27;45490;-67
2022/06/23 00:42:34;;;;;;;;;14.50;13.00;;;;;25.50;48.00;100412.22;5107796;27;45440;-67
2022/06/23 00:45:11;;;;;;;;;18.25;13.25;;;;;25.50;47.96;100403.34;5101193;27;47186;-68
2022/06/23 00:47:48;;;;;;;;;13.25;13.25;;;;;25.51;47.79;100403.16;5106174;27;45526;-67
2022/06/23 00:50:33;;;;;;;;;12.75;12.00;;;;;25.53;48.06;100397.66;5105515;27;45425;-67
2022/06/23 00:53:04;;;;;;;;;14.25;14.25;;;;;25.53;47.86;100390.50;5103087;27;46026;-68
2022/06/23 00:56:00;;;;;;;;;14.75;13.00;;;;;25.55;47.83;100390.31;5113123;27;45482;-67
2022/06/23 00:58:44;;;;;;;;;14.75;12.25;;;;;25.56;47.76;100384.00;5103612;27;45432;-68
2022/06/23 01:01:11;;;;;;;;;17.00;13.50;;;;;25.56;47.85;100384.81;5105762;27;45375;-67
2022/06/23 01:03:41;;;;;;;;;13.50;13.00;;;;;25.56;47.74;100395.53;5107107;27;45575;-67
2022/06/23 01:06:33;;;;;;;;;16.00;15.00;;;;;25.57;47.85;100383.00;5099987;27;45559;-67
2022/06/23 01:09:04;;;;;;;;;11.75;11.25;;;;;25.57;47.86;100377.66;5113209;27;45263;-67
2022/06/23 01:11:34;;;;;;;;;14.25;13.00;;;;;25.58;47.56;100373.97;5110274;27;47261;-67
2022/06/23 01:14:06;;;;;;;;;12.00;10.00;;;;;25.58;47.71;100373.97;5106116;27;45703;-67
2022/06/23 01:16:40;;;;;;;;;15.50;12.75;;;;;25.58;47.89;100379.31;5114168;27;45475;-67
2022/06/23 01:19:19;;;;;;;;;11.50;11.50;;;;;25.57;47.84;100370.44;5102505;27;45517;-67
2022/06/23 01:21:53;;;;;;;;;15.50;13.00;;;;;25.58;47.84;100379.31;5110200;27;46223;-67
2022/06/23 01:24:39;;;;;;;;;12.75;11.00;;;;;25.58;47.76;100372.13;5108799;27;45725;-67
2022/06/23 01:27:07;;;;;;;;;12.50;12.50;;;;;25.58;47.51;100376.63;5125926;27;45269;-68
2022/06/23 01:29:37;;;;;;;;;16.50;15.00;;;;;25.58;47.81;100371.28;5106027;27;45572;-68
2022/06/23 01:32:19;;;;;;;;;12.25;12.25;;;;;25.57;47.47;100373.13;5103874;27;45427;-67
2022/06/23 01:35:03;;;;;;;;;15.50;14.00;;;;;25.57;47.52;100373.13;5104937;27;45314;-67
2022/06/23 01:37:50;;;;;;;;;13.25;11.75;;;;;25.57;47.79;100369.63;5104119;27;45459;-67
2022/06/23 01:40:25;;;;;;;;;14.00;12.50;;;;;25.57;47.49;100364.25;5106338;27;45412;-67
2022/06/23 01:43:01;;;;;;;;;11.50;9.50;;;;;25.57;47.75;100364.25;5110482;27;45574;-67
2022/06/23 01:45:51;;;;;;;;;12.00;11.00;;;;;25.57;47.76;100364.25;5108805;27;45772;-67
2022/06/23 01:48:54;;;;;;;;;14.25;12.50;;;;;25.56;47.96;100360.72;5107583;27;45426;-67
2022/06/23 01:51:25;;;;;;;;;15.50;12.50;;;;;25.56;47.83;100363.38;5096137;27;45384;-67
2022/06/23 01:53:53;;;;;;;;;12.75;11.00;;;;;25.57;48.03;100366.94;5105567;27;45832;-67
2022/06/23 01:56:41;;;;;;;;;12.00;11.00;;;;;25.56;47.77;100362.53;5102852;27;45555;-67
2022/06/23 01:59:24;;;;;;;;;14.25;12.25;;;;;25.56;47.88;100365.22;5103616;27;45233;-68
2022/06/23 02:01:58;;;;;;;;;14.00;12.75;;;;;25.55;47.98;100361.72;5109330;27;45494;-68
2022/06/23 02:04:36;;;;;;;;;15.50;14.00;;;;;25.55;47.63;100361.72;5114943;27;46126;-68
2022/06/23 02:07:19;;;;;;;;;11.75;11.00;;;;;25.55;47.92;100364.41;5109800;27;45943;-68
2022/06/23 02:09:48;;;;;;;;;10.75;9.50;;;;;25.55;47.68;100360.84;5114715;27;45400;-67
2022/06/23 02:12:19;;;;;;;;;13.75;10.50;;;;;25.55;47.83;100359.03;5107993;27;45424;-67
2022/06/23 02:14:52;;;;;;;;;11.50;11.50;;;;;25.55;47.97;100358.16;5107659;27;46136;-67
2022/06/23 02:17:33;;;;;;;;;14.25;13.25;;;;;25.55;47.79;100353.69;5111100;27;45508;-67
2022/06/23 02:20:21;;;;;;;;;11.50;11.25;;;;;25.54;48.02;100351.97;5106633;27;45313;-67
2022/06/23 02:22:48;;;;;;;;;13.75;13.75;;;;;25.56;47.95;100351.84;5107773;27;45575;-67
2022/06/23 02:25:26;;;;;;;;;16.25;12.50;;;;;25.55;47.86;100358.16;5103899;27;75634;-67
2022/06/23 02:27:57;;;;;;;;;12.75;12.00;;;;;25.55;48.23;100352.81;5109642;27;45276;-67
2022/06/23 02:30:32;;;;;;;;;9.25;9.00;;;;;25.54;47.66;100354.66;5124235;27;45470;-67
2022/06/23 02:33:21;;;;;;;;;13.75;12.25;;;;;25.55;47.92;100360.84;5105887;27;45382;-67
2022/06/23 02:35:52;;;;;;;;;13.75;12.00;;;;;25.54;48.05;100349.28;5103274;27;46033;-67
2022/06/23 02:38:20;;;;;;;;;13.50;12.25;;;;;25.55;47.94;100347.44;5109853;27;45745;-67
2022/06/23 02:40:48;;;;;;;;;13.25;13.25;;;;;25.53;47.84;100352.13;5112421;27;45451;-67
2022/06/23 02:43:26;;;;;;;;;12.50;10.25;;;;;25.54;47.76;100353.81;5109895;27;45384;-67
2022/06/23 02:46:09;;;;;;;;;9.50;9.50;;;;;25.53;48.00;100344.94;5110049;27;46200;-67
2022/06/23 02:49:00;;;;;;;;;13.00;9.75;;;;;25.53;47.86;100347.63;5106698;27;45483;-68
2022/06/23 02:51:37;;;;;;;;;13.00;12.75;;;;;25.52;47.86;100337.88;5109452;27;45718;-68
2022/06/23 02:54:15;;;;;;;;;14.50;10.25;;;;;25.53;48.22;100344.06;5108414;27;45490;-68
2022/06/23 02:56:59;;;;;;;;;15.00;13.00;;;;;25.53;48.02;100338.72;5107653;27;46253;-67
2022/06/23 02:59:27;;;;;;;;;12.25;11.00;;;;;25.53;47.98;100339.59;5104592;27;45480;-67
2022/06/23 03:02:27;;;;;;;;;14.50;12.75;;;;;25.52;48.04;100340.56;5106284;27;45500;-67
2022/06/23 03:05:00;;;;;;;;;17.25;12.25;;;;;25.52;48.01;100343.25;5051307;28;45355;-67
2022/06/23 03:07:28;;;;;;;;;14.00;12.00;;;;;25.52;47.96;100348.59;5102896;27;46433;-67
2022/06/23 03:10:05;;;;;;;;;10.00;9.25;;;;;25.52;47.59;100350.44;5112541;27;45667;-67
2022/06/23 03:12:42;;;;;;;;;12.00;11.75;;;;;25.52;47.86;100347.78;5084559;27;45645;-67
2022/06/23 03:15:14;;;;;;;;;10.00;8.75;;;;;25.51;47.90;100349.59;5111761;27;45369;-67
2022/06/23 03:17:51;;;;;;;;;10.25;10.25;;;;;25.53;48.11;100354.81;5109449;27;46434;-67
2022/06/23 03:20:37;;;;;;;;;12.50;12.00;;;;;25.53;48.22;100363.69;5106519;27;45361;-67
2022/06/23 03:23:14;;;;;;;;;13.25;11.25;;;;;25.53;48.10;100362.84;5104530;27;45521;-67
2022/06/23 03:25:47;;;;;;;;;13.00;11.25;;;;;25.53;47.91;100363.69;5107429;27;45681;-67
2022/06/23 03:28:21;;;;;;;;;12.50;11.50;;;;;25.52;48.07;100369.19;5109761;27;47255;-68
2022/06/23 03:31:00;;;;;;;;;14.00;12.00;;;;;25.53;48.34;100368.19;5105642;27;45334;-68
2022/06/23 03:33:40;;;;;;;;;11.25;11.25;;;;;25.52;48.25;100364.69;5103876;27;45493;-68
2022/06/23 03:36:24;;;;;;;;;9.75;9.75;;;;;25.51;48.21;100373.69;5113381;27;45436;-67
2022/06/23 03:42:07;;;;;;;;;11.50;9.50;;;;;25.52;48.01;100378.06;5104872;27;45294;-68
2022/06/23 03:44:54;;;;;;;;;8.50;8.50;;;;;25.52;48.06;100375.41;5109914;27;45636;-67
2022/06/23 03:47:30;;;;;;;;;9.75;9.00;;;;;25.52;48.04;100382.59;5113171;27;45455;-67
2022/06/23 03:49:59;;;;;;;;;9.25;8.50;;;;;25.52;48.21;100396.84;5104586;27;46146;-68
2022/06/23 03:52:43;;;;;;;;;9.50;9.50;;;;;25.52;47.96;100393.31;5109066;27;45417;-68
2022/06/23 03:55:23;;;;;;;;;9.00;9.00;;;;;25.51;48.16;100397.81;5104592;27;45502;-67
2022/06/23 03:57:53;;;;;;;;;9.50;9.00;;;;;25.53;48.14;100403.03;5109163;27;45499;-68
2022/06/23 04:00:26;;;;;;;;;13.50;11.00;;;;;25.51;47.95;100402.34;5105061;27;45436;-67
2022/06/23 04:03:00;;;;;;;;;11.25;10.00;;;;;25.51;48.13;100402.34;5112713;27;46011;-68
2022/06/23 04:05:46;;;;;;;;;13.50;9.75;;;;;25.51;48.15;100400.50;5106326;27;45475;-67
2022/06/23 04:08:12;;;;;;;;;8.75;8.75;;;;;25.51;48.31;100413.88;5112823;27;45238;-67
2022/06/23 04:10:41;;;;;;;;;10.00;9.50;;;;;25.51;48.11;100413.06;5115441;27;45396;-67
2022/06/23 04:13:30;;;;;;;;;10.00;7.50;;;;;25.52;48.10;100412.91;5108139;27;45382;-67
2022/06/23 04:16:02;;;;;;;;;11.25;10.00;;;;;25.52;47.95;100415.59;5106509;27;45435;-67
2022/06/23 04:18:30;;;;;;;;;7.25;6.25;;;;;25.52;47.95;100412.06;5107540;27;45495;-67
2022/06/23 04:21:04;;;;;;;;;8.75;7.25;;;;;25.51;48.01;100421.94;5105600;27;46787;-67
2022/06/23 04:23:39;;;;;;;;;10.00;9.75;;;;;25.51;48.20;100424.59;5109297;27;45558;-67
2022/06/23 04:26:23;;;;;;;;;7.50;7.25;;;;;25.52;48.11;100420.13;5107446;27;45440;-67
2022/06/23 04:28:52;;;;;;;;;9.25;9.00;;;;;25.51;48.42;100426.44;5105371;27;45625;-67
2022/06/23 04:31:24;;;;;;;;;9.25;8.75;;;;;25.50;48.06;100427.47;5110580;27;45442;-66
2022/06/23 04:33:50;;;;;;;;;8.00;8.00;;;;;25.51;48.27;100429.13;5110064;27;45794;-67
2022/06/23 04:36:28;;;;;;;;;8.00;8.00;;;;;25.52;47.95;100433.50;5107030;27;54554;-67
2022/06/23 04:39:00;;;;;;;;;9.75;9.00;;;;;25.50;47.99;100430.13;5106713;27;45397;-67
2022/06/23 04:41:35;;;;;;;;;10.00;8.00;;;;;25.51;48.10;100437.16;5114941;27;45526;-67
2022/06/23 04:44:05;;;;;;;;;9.50;6.75;;;;;25.50;47.97;100433.66;5113260;27;46393;-67
2022/06/23 04:46:52;;;;;;;;;9.25;8.75;;;;;25.51;48.06;100443.38;5112466;27;45485;-67
2022/06/23 04:49:27;;;;;;;;;9.25;8.25;;;;;25.51;48.33;100440.69;5109640;27;45260;-67
2022/06/23 04:52:01;;;;;;;;;8.25;8.25;;;;;25.50;48.17;100433.66;5105468;27;45523;-67
2022/06/23 04:54:31;;;;;;;;;7.00;7.00;;;;;25.50;48.09;100440.84;5104287;27;45376;-68
2022/06/23 04:57:20;;;;;;;;;9.00;6.50;;;;;25.50;48.11;100439.00;5118565;27;45377;-67
2022/06/23 04:59:54;;;;;;;;;8.50;7.25;;;;;25.50;47.87;100438.19;5107163;27;45474;-67
2022/06/23 05:02:29;;;;;;;;;8.50;6.00;;;;;25.50;48.11;100430.97;5106586;27;46220;-67
2022/06/23 05:05:08;;;;;;;;;8.00;6.25;;;;;25.50;48.23;100430.13;5118362;27;45851;-67
2022/06/23 05:07:35;;;;;;;;;6.75;6.50;;;;;25.50;48.09;100430.13;5108819;27;45361;-67
2022/06/23 05:10:06;;;;;;;;;9.50;6.75;;;;;25.50;48.23;100433.66;5107044;27;45742;-67
2022/06/23 05:12:39;;;;;;;;;10.50;7.50;;;;;25.49;48.06;100440.00;5105738;27;46371;-67
2022/06/23 05:15:18;;;;;;;;;7.00;7.00;;;;;25.50;48.20;100436.34;5106065;27;45361;-67
2022/06/23 05:17:55;;;;;;;;;11.75;6.00;;;;;25.50;48.05;100443.53;5106170;27;45506;-67
2022/06/23 05:20:40;;;;;;;;;6.50;6.50;;;;;25.51;48.24;100447.88;5096269;27;45601;-67
2022/06/23 05:23:06;;;;;;;;;6.50;5.75;;;;;25.50;48.03;100447.06;5102425;27;46373;-67
2022/06/23 05:25:43;;;;;;;;;5.75;5.75;;;;;25.50;48.09;100440.84;5107524;27;45619;-67
2022/06/23 05:28:15;;;;;;;;;7.75;5.25;;;;;25.49;48.02;100445.34;5109963;27;45379;-67
2022/06/23 05:30:48;;;;;;;;;8.00;8.00;;;;;25.49;48.09;100453.38;5108722;27;45306;-67
2022/06/23 05:33:20;;;;;;;;;7.25;5.75;;;;;25.49;48.11;100450.72;5105918;27;47418;-67
2022/06/23 05:35:49;;;;;;;;;6.50;6.50;;;;;25.49;48.04;100458.75;5106779;27;45809;-67
2022/06/23 05:38:17;;;;;;;;;6.25;6.25;;;;;25.50;48.02;100454.25;5111438;27;45472;-67
2022/06/23 05:40:51;;;;;;;;;6.00;6.00;;;;;25.49;47.96;100452.56;5107435;27;45400;-67
2022/06/23 05:43:17;;;;;;;;;4.25;4.25;;;;;25.50;48.33;100452.41;5112054;27;46699;-67
2022/06/23 05:45:50;;;;;;;;;8.00;6.00;;;;;25.51;48.11;100443.38;5107348;27;45296;-67
2022/06/23 05:48:37;;;;;;;;;6.50;5.25;;;;;25.50;47.90;100447.06;5105835;27;45482;-67
2022/06/23 05:51:16;;;;;;;;;4.00;4.00;;;;;25.51;47.98;100454.09;5105525;27;46204;-65
2022/06/23 05:53:43;;;;;;;;;5.75;5.75;;;;;25.52;48.29;100444.22;5103281;27;46333;-66
2022/06/23 05:56:23;;;;;;;;;5.25;5.25;;;;;25.53;48.32;100446.75;5111364;27;45752;-66
2022/06/23 05:58:56;;;;;;;;;6.50;5.00;;;;;25.53;48.01;100451.25;5101394;27;45460;-67
2022/06/23 06:01:43;;;;;;;;;6.00;6.00;;;;;25.54;48.09;100444.94;5109999;27;45257;-67
2022/06/23 06:04:25;;;;;;;;;5.50;5.50;;;;;25.54;48.06;100442.25;5107362;27;46912;-67
2022/06/23 06:06:51;;;;;;;;;6.25;5.75;;;;;25.55;48.17;100441.22;5097164;27;45360;-67
2022/06/23 06:09:35;;;;;;;;;7.25;5.75;;;;;25.56;47.83;100434.91;5105601;27;69436;-67
2022/06/23 06:12:06;;;;;;;;;6.25;5.75;;;;;25.56;48.37;100443.78;5107365;27;45630;-67
2022/06/23 06:14:36;;;;;;;;;5.50;5.25;;;;;25.56;47.89;100433.06;5101533;27;45369;-67
2022/06/23 06:17:02;;;;;;;;;6.75;6.00;;;;;25.57;48.09;100439.28;5102439;27;45641;-67
2022/06/23 06:19:29;;;;;;;;;5.25;4.50;;;;;25.57;48.14;100426.72;5107450;27;46516;-67
2022/06/23 06:21:57;;;;;;;;;5.25;5.00;;;;;25.58;47.71;100430.22;5104373;27;45511;-67
2022/06/23 06:24:28;;;;;;;;;5.00;5.00;;;;;25.57;47.95;100434.75;5106835;27;46756;-67
2022/06/23 06:26:54;;;;;;;;;6.50;3.50;;;;;25.55;47.34;100436.75;5113915;27;46888;-67
2022/06/23 06:29:46;;;;;;;;;5.00;4.25;;;;;25.51;47.72;100437.16;5110415;27;45668;-68
2022/06/23 06:32:29;;;;;;;;;5.00;3.25;;;;;25.50;48.02;100440.84;5108080;27;45675;-68
2022/06/23 06:35:21;;;;;;;;;4.75;4.50;;;;;25.50;47.87;100444.38;5107685;27;45513;-67
2022/06/23 06:38:02;;;;;;;;;6.50;5.75;;;;;25.49;47.89;100436.47;5111624;27;45776;-67
2022/06/23 06:40:28;;;;;;;;;6.75;6.75;;;;;25.48;47.78;100432.09;5111218;27;45298;-67
2022/06/23 06:43:01;;;;;;;;;6.25;5.50;;;;;25.48;47.66;100432.97;5115491;27;45524;-66
2022/06/23 06:45:30;;;;;;;;;6.25;4.50;;;;;25.46;47.79;100440.31;5111304;27;46401;-67
2022/06/23 06:47:55;;;;;;;;;6.25;6.00;;;;;25.46;47.69;100442.13;5104396;27;47097;-67
2022/06/23 06:50:20;;;;;;;;;6.00;5.00;;;;;25.45;47.79;100437.75;5106460;27;45468;-67
2022/06/23 06:52:47;;;;;;;;;4.00;4.00;;;;;25.44;47.43;100442.25;5106532;27;45566;-68
2022/06/23 06:55:21;;;;;;;;;7.00;5.75;;;;;25.44;47.61;100436.91;5111146;27;46144;-68
2022/06/23 06:57:51;;;;;;;;;6.25;4.50;;;;;25.43;47.71;100442.41;5107227;27;45956;-66
2022/06/23 07:00:29;;;;;;;;;6.25;5.00;;;;;25.38;47.38;100450.88;5105683;27;45232;-52
2022/06/23 07:02:59;;;;;;;;;7.25;4.75;;;;;25.26;47.70;100446.69;5086264;27;45786;-48
2022/06/23 07:05:39;;;;;;;;;8.50;5.75;;;;;25.20;47.56;100450.75;5109360;27;45413;-47
2022/06/23 07:08:18;;;;;;;;;8.00;5.25;;;;;25.16;47.65;100452.00;5106538;27;45628;-48
2022/06/23 07:11:06;;;;;;;;;6.50;5.25;;;;;25.12;47.47;100445.25;5119189;27;45472;-47
2022/06/23 07:13:54;;;;;;;;;7.25;4.25;;;;;25.08;47.50;100441.19;5103015;27;45726;-49
2022/06/23 07:16:54;;;;;;;;;6.75;5.25;;;;;25.04;47.59;100437.09;5103659;27;46216;-49
2022/06/23 07:19:37;;;;;;;;;5.50;5.00;;;;;24.95;47.38;100439.66;5105444;27;45530;-49
2022/06/23 07:22:17;;;;;;;;;6.50;6.00;;;;;24.87;47.74;100452.03;5107018;27;45388;-46
2022/06/23 07:24:58;;;;;;;;;6.25;4.25;;;;;24.78;47.95;100457.25;5108911;27;45550;-48
2022/06/23 07:27:31;;;;;;;;;11.00;9.00;;;;;24.74;47.95;100465.72;5107940;27;45533;-51
2022/06/23 07:30:12;;;;;;;;;17.00;13.25;;;;;24.70;47.96;100467.81;5113380;27;45570;-52
2022/06/23 07:32:49;;;;;;;;;8.75;7.00;;;;;24.66;48.08;100455.69;5111761;27;45297;-49
2022/06/23 07:35:26;;;;;;;;;6.25;5.50;;;;;24.64;47.94;100463.00;5094758;27;45661;-47
2022/06/23 07:37:59;;;;;;;;;7.25;5.75;;;;;24.61;48.00;100461.47;5113539;27;45571;-53
2022/06/23 07:40:26;;;;;;;;;7.25;6.25;;;;;24.59;48.33;100471.44;5116321;27;45461;-51
2022/06/23 07:43:18;;;;;;;;;6.75;5.00;;;;;24.61;48.13;100471.31;5112299;27;45456;-53
2022/06/23 07:45:52;;;;;;;;;7.75;5.75;;;;;24.63;48.03;100470.22;5115583;27;45354;-47
2022/06/23 07:48:17;;;;;;;;;6.25;6.25;;;;;24.66;48.01;100473.59;5092080;27;47122;-48
2022/06/23 07:50:43;;;;;;;;;7.75;4.75;;;;;24.64;47.83;100465.69;5110537;27;45479;-70
2022/06/23 07:53:17;;;;;;;;;6.00;6.00;;;;;24.70;47.97;100466.97;5107246;27;61713;-67
2022/06/23 07:55:43;;;;;;;;;7.00;4.00;;;;;24.75;48.05;100465.53;5107880;27;45646;-68
2022/06/23 07:58:09;;;;;;;;;5.50;4.50;;;;;24.80;47.90;100460.63;5106951;27;46200;-68
2022/06/23 08:00:41;;;;;;;;;3.25;3.25;;;;;24.86;47.78;100463.72;5097350;27;45430;-68
2022/06/23 08:03:14;;;;;;;;;4.50;4.00;;;;;24.91;47.86;100462.31;5102010;27;45617;-68
2022/06/23 08:05:48;;;;;;;;;8.00;4.00;;;;;24.96;47.70;100465.41;5113269;27;45591;-68
2022/06/23 08:08:19;;;;;;;;;5.00;3.50;;;;;25.00;47.68;100460.63;5105942;27;47559;-68
2022/06/23 08:10:44;;;;;;;;;4.00;2.25;;;;;25.06;47.68;100457.38;5101071;27;45258;-68
2022/06/23 08:13:19;;;;;;;;;5.00;3.00;;;;;25.09;47.64;100462.47;5103173;27;45290;-68
2022/06/23 08:18:43;;;;;;;;;1.75;1.25;;;;;25.20;47.73;100459.63;5105823;27;45560;-67
2022/06/23 08:21:16;;;;;;;;;2.25;2.25;;;;;25.25;47.69;100469.09;5108762;27;45496;-68
2022/06/23 08:23:48;;;;;;;;;4.00;2.50;;;;;25.28;47.52;100466.13;5102318;27;45674;-69
2022/06/23 08:26:16;;;;;;;;;2.00;2.00;;;;;25.32;47.47;100460.34;5106926;27;45300;-68
2022/06/23 08:28:42;;;;;;;;;1.50;1.00;;;;;25.37;47.14;100463.44;5103554;27;46149;-68
2022/06/23 08:31:07;;;;;;;;;2.75;2.25;;;;;25.41;47.23;100463.13;5109594;27;45357;-68
2022/06/23 08:33:33;;;;;;;;;1.25;1.25;;;;;25.44;47.40;100463.69;5110940;27;45510;-68
2022/06/23 08:36:07;;;;;;;;;2.00;2.00;;;;;25.47;47.45;100458.06;5114074;27;45530;-68
2022/06/23 08:38:39;;;;;;;;;4.00;3.50;;;;;25.51;47.60;100467.47;5121579;27;46308;-68
2022/06/23 08:41:13;;;;;;;;;3.75;3.00;;;;;25.54;47.04;100469.88;5108790;27;45347;-68
2022/06/23 08:43:47;;;;;;;;;2.50;2.25;;;;;25.57;47.16;100468.75;5103017;27;45899;-68
2022/06/23 08:46:34;;;;;;;;;4.00;2.25;;;;;25.61;47.04;100467.47;5110082;27;45614;-68
2022/06/23 08:49:08;;;;;;;;;2.00;2.00;;;;;25.63;47.11;100472.69;5103762;27;46144;-68
2022/06/23 08:51:40;;;;;;;;;2.50;2.50;;;;;25.65;46.98;100458.13;5104582;27;45733;-67
2022/06/23 08:54:11;;;;;;;;;3.00;3.00;;;;;25.69;47.00;100464.03;5107138;27;45547;-68
2022/06/23 08:56:44;;;;;;;;;3.75;3.25;;;;;25.70;46.95;100469.25;5101592;27;45530;-67
2022/06/23 08:59:23;;;;;;;;;4.00;3.00;;;;;25.71;46.90;100459.38;5085200;27;46363;-68
2022/06/23 09:02:00;;;;;;;;;3.00;3.00;;;;;25.74;46.76;100472.50;5118368;27;45871;-67
2022/06/23 09:04:37;;;;;;;;;2.75;2.75;;;;;25.74;46.95;100467.97;5106364;27;45417;-68
2022/06/23 09:07:15;;;;;;;;;3.25;3.00;;;;;25.75;46.97;100471.50;5114967;27;45228;-68
2022/06/23 09:09:53;;;;;;;;;4.00;2.25;;;;;25.75;46.80;100467.00;5108213;27;46194;-68
2022/06/23 09:12:33;;;;;;;;;4.50;2.00;;;;;25.76;46.62;100457.97;5114737;27;46647;-68
2022/06/23 09:15:30;;;;;;;;;2.25;2.00;;;;;25.77;47.01;100456.97;5119199;27;45269;-68
2022/06/23 09:18:20;;;;;;;;;2.50;2.50;;;;;25.77;46.83;100459.66;5110637;27;45230;-68
2022/06/23 09:21:06;;;;;;;;;3.00;3.00;;;;;25.77;46.74;100454.28;5108400;27;45392;-68
2022/06/23 09:23:50;;;;;;;;;2.25;2.25;;;;;25.75;46.69;100456.28;5108006;27;45674;-67
2022/06/23 09:26:29;;;;;;;;;2.25;2.25;;;;;25.76;46.70;100460.66;5105356;27;45300;-69
2022/06/23 09:28:55;;;;;;;;;1.75;1.75;;;;;25.75;46.90;100458.94;5104878;27;45488;-68
2022/06/23 09:31:29;;;;;;;;;4.00;2.25;;;;;25.75;46.89;100450.91;5102979;27;45321;-68
2022/06/23 09:33:57;;;;;;;;;3.75;2.25;;;;;25.75;46.96;100453.59;5108409;27;45374;-69
2022/06/23 09:36:41;;;;;;;;;3.75;2.25;;;;;25.76;46.91;100457.97;5102318;27;45374;-69
2022/06/23 09:39:17;;;;;;;;;3.00;3.00;;;;;25.80;46.66;100452.28;5111002;27;45411;-68
2022/06/23 09:41:48;;;;;;;;;2.50;2.50;;;;;25.83;46.73;100447.47;5115734;27;45551;-68
2022/06/23 09:44:45;;;;;;;;;3.25;3.25;;;;;25.86;46.71;100446.34;5105982;27;45337;-68
2022/06/23 09:47:17;;;;;;;;;3.50;3.25;;;;;25.87;46.79;100446.22;5095324;27;47043;-69
2022/06/23 09:50:02;;;;;;;;;2.25;2.25;;;;;25.86;46.63;100446.34;5103378;27;45512;-69
2022/06/23 09:52:57;;;;;;;;;3.00;2.00;;;;;25.88;46.84;100447.88;5101620;27;45275;-54
2022/06/23 09:55:23;;;;;;;;;7.25;4.00;;;;;25.90;46.75;100453.94;5110836;27;45650;-56
2022/06/23 09:58:00;;;;;;;;;1.75;1.25;;;;;25.88;46.86;100444.38;5113962;27;45357;-56
2022/06/23 10:00:41;;;;;;;;;2.00;2.00;;;;;25.86;46.90;100449.03;5111078;27;45433;-56
2022/06/23 10:03:25;;;;;;;;;6.00;6.00;;;;;25.85;46.60;100447.34;5111627;27;46338;-56
2022/06/23 10:06:24;;;;;;;;;8.25;6.00;;;;;25.84;46.94;100449.19;5112179;27;45418;-56
2022/06/23 10:08:49;;;;;;;;;4.50;4.50;;;;;25.84;46.80;100448.34;5111217;27;45311;-56
2022/06/23 10:11:52;;;;;;;;;7.25;4.00;;;;;25.80;46.89;100450.47;5110025;27;45607;-54
2022/06/23 10:14:26;;;;;;;;;5.00;5.00;;;;;25.84;46.75;100451.03;5111462;27;45368;-56
2022/06/23 10:17:33;;;;;;;;;12.00;7.00;;;;;25.82;46.84;100456.53;5111608;27;46328;-56
2022/06/23 10:20:13;;;;;;;;;6.25;6.25;;;;;25.83;47.07;100452.84;5104192;27;45557;-56
2022/06/23 10:23:02;;;;;;;;;2.00;2.00;;;;;25.82;47.29;100439.63;5104889;27;45477;-56
2022/06/23 10:26:09;;;;;;;;;5.25;4.25;;;;;25.84;47.08;100453.72;5103832;27;46215;-55
2022/06/23 10:29:06;;;;;;;;;6.00;6.00;;;;;25.83;47.08;100444.81;5079768;27;45458;-55
2022/06/23 10:31:58;;;;;;;;;2.75;2.75;;;;;25.86;47.06;100446.34;5102936;27;45500;-55
2022/06/23 10:34:29;;;;;;;;;10.00;9.50;;;;;25.86;47.21;100441.84;5085857;27;46724;-55
2022/06/23 10:37:23;;;;;;;;;0.25;0.25;;;;;25.87;46.92;100443.53;5102876;27;45689;-55
2022/06/23 10:39:55;;;;;;;;;7.75;4.50;;;;;25.88;47.14;100442.53;5108452;27;45839;-55
2022/06/23 10:42:35;;;;;;;;;6.75;6.75;;;;;25.89;47.15;100436.19;5104855;27;45467;-55
2022/06/23 10:45:25;;;;;;;;;8.50;8.50;;;;;25.89;47.11;100440.72;5111337;27;45908;-56
2022/06/23 10:48:09;;;;;;;;;6.75;6.75;;;;;25.88;47.21;100429.13;5107480;27;46401;-55
2022/06/23 10:50:42;;;;;;;;;8.25;6.00;;;;;25.90;46.97;100426.28;5108409;27;45240;-56
2022/06/23 10:53:32;;;;;;;;;7.25;6.00;;;;;25.96;47.44;100428.44;5106317;27;45333;-54
2022/06/23 10:56:35;;;;;;;;;9.50;7.00;;;;;26.16;46.72;100434.53;5112390;27;45309;-55
2022/06/23 10:59:38;;;;;;;;;7.00;6.00;;;;;26.21;46.38;100428.72;5107576;27;45488;-54
2022/06/23 11:02:25;;;;;;;;;5.50;5.25;;;;;26.67;46.14;100430.38;5099684;27;45713;-55
2022/06/23 11:05:15;;;;;;;;;3.50;2.25;;;;;27.38;45.50;100425.09;5104300;27;45307;-55
2022/06/23 11:08:03;;;;;;;;;3.25;3.00;;;;;28.00;44.28;100431.13;5114140;27;45454;-53
2022/06/23 11:10:46;;;;;;;;;4.50;4.50;;;;;27.74;43.90;100430.31;5110242;27;45453;-53
2022/06/23 11:13:30;;;;;;;;;7.75;5.00;;;;;27.37;43.80;100423.38;5105382;27;45405;-50
2022/06/23 11:16:05;;;;;;;;;7.25;6.25;;;;;27.10;44.79;100427.88;5106827;27;45660;-51
2022/06/23 11:18:52;;;;;;;;;4.75;3.25;;;;;26.85;45.04;100416.94;5105495;27;45508;-53
2022/06/23 11:22:00;;;;;;;;;6.25;4.25;;;;;26.68;45.67;100417.78;5104911;27;47112;-53
2022/06/23 11:24:53;;;;;;;;;6.25;4.50;;;;;26.53;45.52;100414.78;5095510;27;45473;-53
2022/06/23 11:27:27;;;;;;;;;2.25;2.25;;;;;26.44;45.95;100413.88;5105939;27;45408;-54
2022/06/23 11:30:07;;;;;;;;;5.50;4.25;;;;;26.37;46.17;100399.38;5104070;27;45210;-52
2022/06/23 11:32:42;;;;;;;;;5.50;2.75;;;;;26.31;46.25;100406.19;5106588;27;46362;-54
2022/06/23 11:35:13;;;;;;;;;3.00;2.50;;;;;26.27;45.91;100404.78;5110266;27;45526;-54
2022/06/23 11:38:00;;;;;;;;;2.75;1.50;;;;;26.24;46.38;100402.44;5114746;27;45481;-61
2022/06/23 11:40:37;;;;;;;;;3.00;3.00;;;;;26.21;48.02;100391.16;5108408;27;45489;-54
2022/06/23 11:43:22;;;;;;;;;3.75;3.00;;;;;26.17;48.75;100405.84;5107430;27;45404;-64
2022/06/23 11:46:03;;;;;;;;;1.00;1.00;;;;;26.10;49.03;100395.75;5101220;27;46872;-65
2022/06/23 11:48:35;;;;;;;;;3.00;1.50;;;;;26.07;49.28;100395.19;5102412;27;45388;-65
2022/06/23 11:51:18;;;;;;;;;2.25;1.25;;;;;26.02;49.91;100395.63;5103133;27;45396;-65
2022/06/23 11:54:14;;;;;;;;;3.75;2.25;;;;;25.95;49.92;100384.66;5111078;27;45427;-65
2022/06/23 11:56:42;;;;;;;;;2.00;2.00;;;;;25.92;50.41;100394.81;5105358;27;45583;-65
2022/06/23 11:59:19;;;;;;;;;2.25;2.25;;;;;25.88;50.63;100394.25;5107929;27;45384;-65
2022/06/23 12:01:45;;;;;;;;;2.00;2.00;;;;;25.86;50.45;100388.22;5109498;27;45590;-66
2022/06/23 12:04:13;;;;;;;;;2.50;2.00;;;;;25.83;50.64;100377.78;5109307;27;75581;-65
2022/06/23 12:06:54;;;;;;;;;3.00;2.25;;;;;25.81;51.36;100382.44;5108487;27;45397;-66
2022/06/23 12:09:28;;;;;;;;;2.75;2.00;;;;;25.79;51.23;100370.22;5109145;27;45405;-66
2022/06/23 12:11:55;;;;;;;;;1.25;1.25;;;;;25.77;51.25;100370.34;5103213;27;45444;-66